sensor_id;sensor_type;location;lat;lon;timestamp;pressure;altitude;pressure_sealevel;temperature;humidity
62617;BME280;62539;51.190;6.808;2023-03-21T00:00:01;101441.88;;;19.15;53.88
62617;BME280;62539;51.190;6.808;2023-03-21T00:02:26;101441.88;;;19.15;53.62
62617;BME280;62539;51.190;6.808;2023-03-21T00:04:51;101442.78;;;19.14;53.47
62617;BME280;62539;51.190;6.808;2023-03-21T00:07:17;101436.69;;;19.12;53.53
62617;BME280;62539;51.190;6.808;2023-03-21T00:09:42;101431.41;;;19.13;53.59
62617;BME280;62539;51.190;6.808;2023-03-21T00:12:08;101432.34;;;19.10;53.39
62617;BME280;62539;51.190;6.808;2023-03-21T00:14:35;101430.59;;;19.11;53.48
62617;BME280;62539;51.190;6.808;2023-03-21T00:17:02;101425.34;;;19.09;53.34
62617;BME280;62539;51.190;6.808;2023-03-21T00:19:28;101428.06;;;19.06;53.39
62617;BME280;62539;51.190;6.808;2023-03-21T00:21:54;101416.72;;;19.04;53.47
62617;BME280;62539;51.190;6.808;2023-03-21T00:24:21;101416.81;;;19.01;53.53
62617;BME280;62539;51.190;6.808;2023-03-21T00:26:48;101424.75;;;19.00;53.47
62617;BME280;62539;51.190;6.808;2023-03-21T00:29:14;101416.94;;;18.97;53.64
62617;BME280;62539;51.190;6.808;2023-03-21T00:31:40;101409.03;;;18.95;53.64
62617;BME280;62539;51.190;6.808;2023-03-21T00:34:06;101404.78;;;18.91;53.72
62617;BME280;62539;51.190;6.808;2023-03-21T00:36:31;101412.72;;;18.89;53.91
62617;BME280;62539;51.190;6.808;2023-03-21T00:38:56;101407.47;;;18.88;53.83
62617;BME280;62539;51.190;6.808;2023-03-21T00:41:22;101406.66;;;18.86;53.88
62617;BME280;62539;51.190;6.808;2023-03-21T00:43:47;101407.63;;;18.83;54.07
62617;BME280;62539;51.190;6.808;2023-03-21T00:46:13;101405.88;;;18.82;53.95
62617;BME280;62539;51.190;6.808;2023-03-21T00:48:39;101403.28;;;18.80;53.84
62617;BME280;62539;51.190;6.808;2023-03-21T00:51:11;101401.56;;;18.79;54.02
62617;BME280;62539;51.190;6.808;2023-03-21T00:53:45;101405.09;;;18.78;53.95
62617;BME280;62539;51.190;6.808;2023-03-21T00:56:11;101395.53;;;18.76;53.85
62617;BME280;62539;51.190;6.808;2023-03-21T00:58:36;101395.56;;;18.74;54.09
62617;BME280;62539;51.190;6.808;2023-03-21T01:01:02;101393.81;;;18.73;53.98
62617;BME280;62539;51.190;6.808;2023-03-21T01:03:28;101387.75;;;18.71;54.11
62617;BME280;62539;51.190;6.808;2023-03-21T01:05:54;101386.91;;;18.71;54.13
62617;BME280;62539;51.190;6.808;2023-03-21T01:08:34;101386.91;;;18.69;54.15
62617;BME280;62539;51.190;6.808;2023-03-21T01:11:04;101378.22;;;18.67;54.25
62617;BME280;62539;51.190;6.808;2023-03-21T01:13:32;101390.53;;;18.65;54.16
62617;BME280;62539;51.190;6.808;2023-03-21T01:15:58;101380.06;;;18.63;54.27
62617;BME280;62539;51.190;6.808;2023-03-21T01:18:27;101383.53;;;18.64;54.34
62617;BME280;62539;51.190;6.808;2023-03-21T01:20:55;101380.09;;;18.62;54.30
62617;BME280;62539;51.190;6.808;2023-03-21T01:23:22;101378.38;;;18.61;54.45
62617;BME280;62539;51.190;6.808;2023-03-21T01:25:50;101378.41;;;18.59;54.32
62617;BME280;62539;51.190;6.808;2023-03-21T01:28:17;101371.44;;;18.58;54.45
62617;BME280;62539;51.190;6.808;2023-03-21T01:30:49;101368.84;;;18.57;54.35
62617;BME280;62539;51.190;6.808;2023-03-21T01:33:16;101371.47;;;18.57;54.24
62617;BME280;62539;51.190;6.808;2023-03-21T01:35:43;101367.09;;;18.56;54.43
62617;BME280;62539;51.190;6.808;2023-03-21T01:38:09;101367.09;;;18.56;54.41
62617;BME280;62539;51.190;6.808;2023-03-21T01:40:35;101374.19;;;18.54;54.43
62617;BME280;62539;51.190;6.808;2023-03-21T01:43:01;101375.94;;;18.55;54.44
62617;BME280;62539;51.190;6.808;2023-03-21T01:49:03;101366.50;;;18.46;54.53
62617;BME280;62539;51.190;6.808;2023-03-21T01:51:38;101364.75;;;18.45;54.60
62617;BME280;62539;51.190;6.808;2023-03-21T01:54:12;101360.47;;;18.42;54.64
62617;BME280;62539;51.190;6.808;2023-03-21T01:56:42;101354.34;;;18.42;54.78
62617;BME280;62539;51.190;6.808;2023-03-21T01:59:16;101353.47;;;18.41;54.68
62617;BME280;62539;51.190;6.808;2023-03-21T02:01:48;101360.47;;;18.41;54.77
62617;BME280;62539;51.190;6.808;2023-03-21T02:04:16;101362.25;;;18.40;54.61
62617;BME280;62539;51.190;6.808;2023-03-21T02:06:54;101357.84;;;18.41;54.88
62617;BME280;62539;51.190;6.808;2023-03-21T02:09:27;101348.25;;;18.40;54.77
62617;BME280;62539;51.190;6.808;2023-03-21T02:11:57;101347.34;;;18.41;54.75
62617;BME280;62539;51.190;6.808;2023-03-21T02:14:24;101339.53;;;18.39;54.75
62617;BME280;62539;51.190;6.808;2023-03-21T02:23:05;101327.38;;;18.35;54.84
62617;BME280;62539;51.190;6.808;2023-03-21T02:26:23;101326.50;;;18.34;54.55
62617;BME280;62539;51.190;6.808;2023-03-21T02:35:39;101311.69;;;18.32;54.61
62617;BME280;62539;51.190;6.808;2023-03-21T02:41:32;101306.50;;;18.29;54.78
62617;BME280;62539;51.190;6.808;2023-03-21T02:44:28;101299.53;;;18.28;54.59
62617;BME280;62539;51.190;6.808;2023-03-21T02:47:13;101301.25;;;18.29;54.78
62617;BME280;62539;51.190;6.808;2023-03-21T02:49:54;101303.00;;;18.28;54.79
62617;BME280;62539;51.190;6.808;2023-03-21T02:52:25;101305.63;;;18.28;54.80
62617;BME280;62539;51.190;6.808;2023-03-21T02:54:56;101303.00;;;18.28;54.78
62617;BME280;62539;51.190;6.808;2023-03-21T02:57:23;101298.63;;;18.29;54.76
62617;BME280;62539;51.190;6.808;2023-03-21T02:59:50;101293.38;;;18.29;54.78
62617;BME280;62539;51.190;6.808;2023-03-21T03:02:22;101301.25;;;18.29;54.56
62617;BME280;62539;51.190;6.808;2023-03-21T03:04:51;101295.13;;;18.28;54.70
62617;BME280;62539;51.190;6.808;2023-03-21T03:07:24;101293.41;;;18.27;54.54
62617;BME280;62539;51.190;6.808;2023-03-21T03:10:21;101297.81;;;18.27;54.55
62617;BME280;62539;51.190;6.808;2023-03-21T03:16:57;101291.81;;;18.21;54.79
62617;BME280;62539;51.190;6.808;2023-03-21T03:19:42;101284.81;;;18.20;54.57
62617;BME280;62539;51.190;6.808;2023-03-21T03:22:27;101283.09;;;18.19;54.74
62617;BME280;62539;51.190;6.808;2023-03-21T03:25:06;101283.13;;;18.18;54.79
62617;BME280;62539;51.190;6.808;2023-03-21T03:27:39;101280.50;;;18.18;54.77
62617;BME280;62539;51.190;6.808;2023-03-21T03:30:09;101277.03;;;18.17;54.73
62617;BME280;62539;51.190;6.808;2023-03-21T03:32:47;101271.78;;;18.17;54.79
62617;BME280;62539;51.190;6.808;2023-03-21T03:35:17;101270.94;;;18.15;54.78
62617;BME280;62539;51.190;6.808;2023-03-21T03:37:49;101273.56;;;18.15;54.76
62617;BME280;62539;51.190;6.808;2023-03-21T03:40:40;101270.13;;;18.13;54.76
62617;BME280;62539;51.190;6.808;2023-03-21T03:43:16;101272.75;;;18.13;54.76
62617;BME280;62539;51.190;6.808;2023-03-21T03:45:49;101270.97;;;18.14;54.85
62617;BME280;62539;51.190;6.808;2023-03-21T03:48:25;101268.41;;;18.12;54.72
62617;BME280;62539;51.190;6.808;2023-03-21T03:51:00;101263.16;;;18.12;54.80
62617;BME280;62539;51.190;6.808;2023-03-21T03:55:58;101259.69;;;18.10;54.74
62617;BME280;62539;51.190;6.808;2023-03-21T03:58:25;101257.91;;;18.11;54.87
62617;BME280;62539;51.190;6.808;2023-03-21T04:00:52;101248.31;;;18.10;54.74
62617;BME280;62539;51.190;6.808;2023-03-21T04:03:20;101253.56;;;18.10;54.81
62617;BME280;62539;51.190;6.808;2023-03-21T04:05:46;101242.22;;;18.09;54.80
62617;BME280;62539;51.190;6.808;2023-03-21T04:08:12;101242.22;;;18.09;54.87
62617;BME280;62539;51.190;6.808;2023-03-21T04:10:40;101251.84;;;18.09;54.75
62617;BME280;62539;51.190;6.808;2023-03-21T04:13:07;101240.50;;;18.08;54.77
62617;BME280;62539;51.190;6.808;2023-03-21T04:15:33;101238.78;;;18.07;54.89
62617;BME280;62539;51.190;6.808;2023-03-21T04:17:59;101244.03;;;18.07;54.73
62617;BME280;62539;51.190;6.808;2023-03-21T04:20:25;101237.03;;;18.06;54.86
62617;BME280;62539;51.190;6.808;2023-03-21T04:22:50;101240.56;;;18.05;54.76
62617;BME280;62539;51.190;6.808;2023-03-21T04:25:16;101239.69;;;18.04;54.82
62617;BME280;62539;51.190;6.808;2023-03-21T04:27:42;101244.09;;;18.04;54.91
62617;BME280;62539;51.190;6.808;2023-03-21T04:30:09;101244.94;;;18.04;54.65
62617;BME280;62539;51.190;6.808;2023-03-21T04:32:36;101247.63;;;18.03;54.85
62617;BME280;62539;51.190;6.808;2023-03-21T04:35:05;101246.72;;;18.04;54.81
62617;BME280;62539;51.190;6.808;2023-03-21T04:37:33;101245.66;;;18.11;54.90
62617;BME280;62539;51.190;6.808;2023-03-21T04:39:59;101246.19;;;18.26;54.96
62617;BME280;62539;51.190;6.808;2023-03-21T04:42:25;101249.97;;;18.48;54.59
62617;BME280;62539;51.190;6.808;2023-03-21T04:44:51;101244.03;;;18.73;53.82
62617;BME280;62539;51.190;6.808;2023-03-21T04:47:17;101249.50;;;18.99;53.16
62617;BME280;62539;51.190;6.808;2023-03-21T04:49:44;101244.34;;;19.24;52.57
62617;BME280;62539;51.190;6.808;2023-03-21T04:52:14;101229.53;;;19.50;52.05
62617;BME280;62539;51.190;6.808;2023-03-21T04:54:39;101227.97;;;19.73;51.58
62617;BME280;62539;51.190;6.808;2023-03-21T04:57:05;101219.50;;;19.91;51.00
62617;BME280;62539;51.190;6.808;2023-03-21T04:59:32;101219.03;;;20.05;50.49
62617;BME280;62539;51.190;6.808;2023-03-21T05:01:58;101216.94;;;20.15;50.43
62617;BME280;62539;51.190;6.808;2023-03-21T05:04:24;101214.06;;;20.23;50.05
62617;BME280;62539;51.190;6.808;2023-03-21T05:06:52;101211.25;;;20.27;49.70
62617;BME280;62539;51.190;6.808;2023-03-21T05:09:17;101217.28;;;20.31;49.59
62617;BME280;62539;51.190;6.808;2023-03-21T05:11:43;101219.75;;;20.36;49.55
62617;BME280;62539;51.190;6.808;2023-03-21T05:14:11;101216.97;;;20.40;49.35
62617;BME280;62539;51.190;6.808;2023-03-21T05:16:41;101222.13;;;20.44;49.44
62617;BME280;62539;51.190;6.808;2023-03-21T05:19:09;101228.25;;;20.44;49.31
62617;BME280;62539;51.190;6.808;2023-03-21T05:21:40;101226.53;;;20.43;49.17
62617;BME280;62539;51.190;6.808;2023-03-21T05:24:12;101228.34;;;20.41;49.17
62617;BME280;62539;51.190;6.808;2023-03-21T05:26:40;101222.16;;;20.42;49.12
62617;BME280;62539;51.190;6.808;2023-03-21T05:29:07;101228.13;;;20.47;48.94
62617;BME280;62539;51.190;6.808;2023-03-21T05:31:34;101235.81;;;20.53;48.82
62617;BME280;62539;51.190;6.808;2023-03-21T05:34:00;101229.28;;;20.65;48.70
62617;BME280;62539;51.190;6.808;2023-03-21T05:36:26;101226.22;;;20.76;48.47
62617;BME280;62539;51.190;6.808;2023-03-21T05:38:52;101226.63;;;20.91;48.26
62617;BME280;62539;51.190;6.808;2023-03-21T05:41:17;101233.09;;;21.06;47.98
62617;BME280;62539;51.190;6.808;2023-03-21T05:43:43;101233.59;;;21.15;47.82
62617;BME280;62539;51.190;6.808;2023-03-21T05:46:10;101232.44;;;21.23;47.59
62617;BME280;62539;51.190;6.808;2023-03-21T05:48:36;101235.75;;;21.28;47.24
62617;BME280;62539;51.190;6.808;2023-03-21T05:51:02;101220.78;;;21.28;47.12
62617;BME280;62539;51.190;6.808;2023-03-21T05:53:28;101225.22;;;21.28;46.92
62617;BME280;62539;51.190;6.808;2023-03-21T05:55:54;101237.59;;;21.26;46.91
62617;BME280;62539;51.190;6.808;2023-03-21T05:58:20;101237.72;;;21.23;47.06
62617;BME280;62539;51.190;6.808;2023-03-21T06:00:45;101235.28;;;21.18;47.09
62617;BME280;62539;51.190;6.808;2023-03-21T06:03:10;101230.16;;;21.13;47.14
62617;BME280;62539;51.190;6.808;2023-03-21T06:05:36;101230.13;;;21.15;47.26
62617;BME280;62539;51.190;6.808;2023-03-21T06:08:01;101232.63;;;21.18;47.44
62617;BME280;62539;51.190;6.808;2023-03-21T06:10:27;101230.59;;;21.25;46.94
62617;BME280;62539;51.190;6.808;2023-03-21T06:12:52;101224.97;;;21.34;46.78
62617;BME280;62539;51.190;6.808;2023-03-21T06:15:18;101222.78;;;21.46;46.46
62617;BME280;62539;51.190;6.808;2023-03-21T06:17:43;101225.09;;;21.53;46.06
62617;BME280;62539;51.190;6.808;2023-03-21T06:20:09;101231.00;;;21.60;46.08
62617;BME280;62539;51.190;6.808;2023-03-21T06:22:35;101235.31;;;21.63;46.44
62617;BME280;62539;51.190;6.808;2023-03-21T06:25:02;101228.25;;;21.63;46.93
62617;BME280;62539;51.190;6.808;2023-03-21T06:27:29;101228.28;;;21.62;47.11
62617;BME280;62539;51.190;6.808;2023-03-21T06:29:55;101236.28;;;21.60;47.13
62617;BME280;62539;51.190;6.808;2023-03-21T06:32:22;101229.44;;;21.54;47.00
62617;BME280;62539;51.190;6.808;2023-03-21T06:34:47;101236.66;;;21.51;47.15
62617;BME280;62539;51.190;6.808;2023-03-21T06:37:13;101237.72;;;21.45;46.96
62617;BME280;62539;51.190;6.808;2023-03-21T06:39:38;101237.13;;;21.38;47.18
62617;BME280;62539;51.190;6.808;2023-03-21T06:42:04;101234.59;;;21.35;47.17
62617;BME280;62539;51.190;6.808;2023-03-21T06:44:31;101237.13;;;21.38;47.19
62617;BME280;62539;51.190;6.808;2023-03-21T06:46:56;101235.22;;;21.42;47.39
62617;BME280;62539;51.190;6.808;2023-03-21T06:49:22;101239.44;;;21.46;47.10
62617;BME280;62539;51.190;6.808;2023-03-21T06:51:47;101245.53;;;21.48;47.34
62617;BME280;62539;51.190;6.808;2023-03-21T06:54:13;101239.22;;;21.52;47.35
62617;BME280;62539;51.190;6.808;2023-03-21T06:56:39;101246.09;;;21.56;47.25
62617;BME280;62539;51.190;6.808;2023-03-21T06:59:05;101245.91;;;21.61;47.37
62617;BME280;62539;51.190;6.808;2023-03-21T07:01:33;101244.09;;;21.63;47.46
62617;BME280;62539;51.190;6.808;2023-03-21T07:03:59;101252.03;;;21.62;47.56
62617;BME280;62539;51.190;6.808;2023-03-21T07:06:25;101249.59;;;21.57;47.41
62617;BME280;62539;51.190;6.808;2023-03-21T07:08:51;101248.81;;;21.55;47.58
62617;BME280;62539;51.190;6.808;2023-03-21T07:11:19;101251.38;;;21.56;47.46
62617;BME280;62539;51.190;6.808;2023-03-21T07:13:45;101252.03;;;21.62;47.78
62617;BME280;62539;51.190;6.808;2023-03-21T07:16:12;101255.25;;;21.70;47.65
62617;BME280;62539;51.190;6.808;2023-03-21T07:18:38;101254.91;;;21.79;47.32
62617;BME280;62539;51.190;6.808;2023-03-21T07:21:04;101253.59;;;21.90;47.34
62617;BME280;62539;51.190;6.808;2023-03-21T07:23:30;101255.94;;;21.97;46.79
62617;BME280;62539;51.190;6.808;2023-03-21T07:25:55;101254.09;;;21.99;46.39
62617;BME280;62539;51.190;6.808;2023-03-21T07:28:21;101250.53;;;22.00;46.13
62617;BME280;62539;51.190;6.808;2023-03-21T07:30:56;101248.81;;;21.99;46.38
62617;BME280;62539;51.190;6.808;2023-03-21T07:33:24;101240.09;;;21.97;46.32
62617;BME280;62539;51.190;6.808;2023-03-21T07:35:51;101226.22;;;21.92;46.54
62617;BME280;62539;51.190;6.808;2023-03-21T07:38:18;101215.91;;;21.86;46.63
62617;BME280;62539;51.190;6.808;2023-03-21T07:40:46;101228.44;;;21.81;46.97
62617;BME280;62539;51.190;6.808;2023-03-21T07:43:13;101236.53;;;21.76;47.16
62617;BME280;62539;51.190;6.808;2023-03-21T07:45:40;101235.00;;;21.70;47.29
62617;BME280;62539;51.190;6.808;2023-03-21T07:48:07;101229.84;;;21.67;47.34
62617;BME280;62539;51.190;6.808;2023-03-21T07:50:34;101229.78;;;21.69;47.28
62617;BME280;62539;51.190;6.808;2023-03-21T07:53:00;101228.81;;;21.71;47.55
62617;BME280;62539;51.190;6.808;2023-03-21T07:55:26;101234.69;;;21.78;47.35
62617;BME280;62539;51.190;6.808;2023-03-21T07:57:52;101230.81;;;21.87;46.94
62617;BME280;62539;51.190;6.808;2023-03-21T08:00:19;101245.38;;;21.97;47.17
62617;BME280;62539;51.190;6.808;2023-03-21T08:02:49;101237.84;;;22.09;46.90
62617;BME280;62539;51.190;6.808;2023-03-21T08:05:20;101242.75;;;22.18;46.86
62617;BME280;62539;51.190;6.808;2023-03-21T08:07:50;101245.94;;;22.26;46.45
62617;BME280;62539;51.190;6.808;2023-03-21T08:10:16;101248.44;;;22.29;46.21
62617;BME280;62539;51.190;6.808;2023-03-21T08:12:43;101255.34;;;22.32;46.48
62617;BME280;62539;51.190;6.808;2023-03-21T08:15:10;101253.63;;;22.31;46.43
62617;BME280;62539;51.190;6.808;2023-03-21T08:17:36;101251.09;;;22.29;46.27
62617;BME280;62539;51.190;6.808;2023-03-21T08:20:05;101249.50;;;22.25;46.12
62617;BME280;62539;51.190;6.808;2023-03-21T08:22:33;101249.75;;;22.19;46.16
62617;BME280;62539;51.190;6.808;2023-03-21T08:25:00;101245.66;;;22.12;46.69
62617;BME280;62539;51.190;6.808;2023-03-21T08:27:31;101252.00;;;22.08;46.49
62617;BME280;62539;51.190;6.808;2023-03-21T08:29:57;101243.28;;;22.06;46.68
62617;BME280;62539;51.190;6.808;2023-03-21T08:32:24;101243.28;;;22.06;47.08
62617;BME280;62539;51.190;6.808;2023-03-21T08:34:54;101245.97;;;22.04;47.03
62617;BME280;62539;51.190;6.808;2023-03-21T08:37:20;101252.25;;;22.01;47.36
62617;BME280;62539;51.190;6.808;2023-03-21T08:39:45;101250.66;;;21.97;47.30
62617;BME280;62539;51.190;6.808;2023-03-21T08:42:11;101247.22;;;21.95;47.18
62617;BME280;62539;51.190;6.808;2023-03-21T08:44:36;101248.00;;;21.97;47.21
62617;BME280;62539;51.190;6.808;2023-03-21T08:47:03;101254.00;;;22.01;47.50
62617;BME280;62539;51.190;6.808;2023-03-21T08:49:30;101246.72;;;22.08;47.21
62617;BME280;62539;51.190;6.808;2023-03-21T08:51:55;101248.03;;;22.18;47.02
62617;BME280;62539;51.190;6.808;2023-03-21T08:54:22;101245.78;;;22.29;46.79
62617;BME280;62539;51.190;6.808;2023-03-21T08:56:47;101237.47;;;22.39;47.08
62617;BME280;62539;51.190;6.808;2023-03-21T08:59:13;101238.03;;;22.47;46.61
62617;BME280;62539;51.190;6.808;2023-03-21T09:01:38;101237.81;;;22.52;46.58
62617;BME280;62539;51.190;6.808;2023-03-21T09:04:04;101236.81;;;22.54;46.39
62617;BME280;62539;51.190;6.808;2023-03-21T09:06:32;101235.03;;;22.55;46.27
62617;BME280;62539;51.190;6.808;2023-03-21T09:08:58;101228.03;;;22.54;46.48
62617;BME280;62539;51.190;6.808;2023-03-21T09:11:24;101241.31;;;22.52;46.55
62617;BME280;62539;51.190;6.808;2023-03-21T09:13:49;101241.47;;;22.49;46.67
62617;BME280;62539;51.190;6.808;2023-03-21T09:16:15;101239.00;;;22.44;46.47
62617;BME280;62539;51.190;6.808;2023-03-21T09:18:41;101236.53;;;22.40;46.46
62617;BME280;62539;51.190;6.808;2023-03-21T09:21:09;101234.09;;;22.35;46.81
62617;BME280;62539;51.190;6.808;2023-03-21T09:23:38;101228.94;;;22.32;46.75
62617;BME280;62539;51.190;6.808;2023-03-21T09:26:04;101240.28;;;22.34;46.95
62617;BME280;62539;51.190;6.808;2023-03-21T09:28:31;101231.25;;;22.40;46.78
62617;BME280;62539;51.190;6.808;2023-03-21T09:30:57;101227.44;;;22.47;46.66
62617;BME280;62539;51.190;6.808;2023-03-21T09:33:26;101231.47;;;22.56;46.53
62617;BME280;62539;51.190;6.808;2023-03-21T09:35:54;101235.34;;;22.68;46.62
62617;BME280;62539;51.190;6.808;2023-03-21T09:38:20;101235.88;;;22.76;46.19
62617;BME280;62539;51.190;6.808;2023-03-21T09:40:57;101228.63;;;22.80;46.11
62617;BME280;62539;51.190;6.808;2023-03-21T09:43:58;101238.38;;;22.79;45.69
62617;BME280;62539;51.190;6.808;2023-03-21T09:49:55;101236.94;;;22.72;45.76
62617;BME280;62539;51.190;6.808;2023-03-21T09:52:50;101236.34;;;22.65;45.86
62617;BME280;62539;51.190;6.808;2023-03-21T09:55:27;101233.91;;;22.60;46.24
62617;BME280;62539;51.190;6.808;2023-03-21T09:58:13;101235.03;;;22.55;46.15
62617;BME280;62539;51.190;6.808;2023-03-21T10:00:52;101227.09;;;22.55;46.57
62617;BME280;62539;51.190;6.808;2023-03-21T10:03:29;101221.75;;;22.56;46.12
62617;BME280;62539;51.190;6.808;2023-03-21T10:05:59;101225.19;;;22.58;46.08
62617;BME280;62539;51.190;6.808;2023-03-21T10:08:35;101222.59;;;22.57;45.96
62617;BME280;62539;51.190;6.808;2023-03-21T10:11:13;101222.72;;;22.54;46.41
62617;BME280;62539;51.190;6.808;2023-03-21T10:13:56;101209.66;;;22.51;46.31
62617;BME280;62539;51.190;6.808;2023-03-21T10:16:34;101213.16;;;22.51;46.56
62617;BME280;62539;51.190;6.808;2023-03-21T10:19:14;101212.94;;;22.56;46.47
62617;BME280;62539;51.190;6.808;2023-03-21T10:21:46;101206.47;;;22.63;46.21
62617;BME280;62539;51.190;6.808;2023-03-21T10:24:22;101202.56;;;22.72;46.19
62617;BME280;62539;51.190;6.808;2023-03-21T10:26:51;101198.56;;;22.82;46.08
62617;BME280;62539;51.190;6.808;2023-03-21T10:29:21;101194.69;;;22.89;45.99
62617;BME280;62539;51.190;6.808;2023-03-21T10:31:51;101184.75;;;22.95;45.74
62617;BME280;62539;51.190;6.808;2023-03-21T10:34:29;101186.41;;;22.97;45.66
62617;BME280;62539;51.190;6.808;2023-03-21T10:36:59;101178.41;;;22.99;45.56
62617;BME280;62539;51.190;6.808;2023-03-21T10:39:37;101164.38;;;22.97;45.48
62617;BME280;62539;51.190;6.808;2023-03-21T10:42:05;101167.97;;;22.96;45.80
62617;BME280;62539;51.190;6.808;2023-03-21T10:44:45;101169.03;;;22.92;45.71
62617;BME280;62539;51.190;6.808;2023-03-21T10:47:19;101154.28;;;22.86;45.81
62617;BME280;62539;51.190;6.808;2023-03-21T10:49:46;101151.88;;;22.81;45.97
62617;BME280;62539;51.190;6.808;2023-03-21T10:52:16;101145.94;;;22.76;45.94
62617;BME280;62539;51.190;6.808;2023-03-21T10:54:43;101148.72;;;22.73;46.27
62617;BME280;62539;51.190;6.808;2023-03-21T10:57:28;101147.84;;;22.72;46.33
62617;BME280;62539;51.190;6.808;2023-03-21T10:59:59;101139.59;;;22.80;46.30
62617;BME280;62539;51.190;6.808;2023-03-21T11:02:32;101138.38;;;22.87;46.01
62617;BME280;62539;51.190;6.808;2023-03-21T11:05:05;101127.25;;;22.98;45.64
62617;BME280;62539;51.190;6.808;2023-03-21T11:07:41;101129.41;;;23.09;45.66
62617;BME280;62539;51.190;6.808;2023-03-21T11:10:28;101120.25;;;23.16;45.05
62617;BME280;62539;51.190;6.808;2023-03-21T11:13:16;101118.94;;;23.25;44.96
62617;BME280;62539;51.190;6.808;2023-03-21T11:15:52;101114.38;;;23.29;45.11
62617;BME280;62539;51.190;6.808;2023-03-21T11:18:28;101114.28;;;23.30;44.67
62617;BME280;62539;51.190;6.808;2023-03-21T11:21:04;101117.81;;;23.31;44.81
62617;BME280;62539;51.190;6.808;2023-03-21T11:23:33;101114.38;;;23.29;44.93
62617;BME280;62539;51.190;6.808;2023-03-21T11:26:08;101121.53;;;23.27;44.46
62617;BME280;62539;51.190;6.808;2023-03-21T11:28:38;101108.56;;;23.20;44.55
62617;BME280;62539;51.190;6.808;2023-03-21T11:31:06;101112.31;;;23.16;45.02
62617;BME280;62539;51.190;6.808;2023-03-21T11:33:36;101115.94;;;23.14;44.58
62617;BME280;62539;51.190;6.808;2023-03-21T11:38:44;101115.25;;;23.10;45.30
62617;BME280;62539;51.190;6.808;2023-03-21T11:41:27;101105.34;;;23.14;45.02
62617;BME280;62539;51.190;6.808;2023-03-21T11:43:55;101108.56;;;23.20;44.70
62617;BME280;62539;51.190;6.808;2023-03-21T11:46:23;101110.06;;;23.26;44.94
62617;BME280;62539;51.190;6.808;2023-03-21T11:48:51;101108.94;;;23.32;44.57
62617;BME280;62539;51.190;6.808;2023-03-21T11:51:37;101104.47;;;23.32;44.55
62617;BME280;62539;51.190;6.808;2023-03-21T11:54:15;101094.75;;;23.33;44.78
62617;BME280;62539;51.190;6.808;2023-03-21T11:56:48;101098.34;;;23.32;44.58
62617;BME280;62539;51.190;6.808;2023-03-21T12:05:31;101092.19;;;23.31;44.57
62617;BME280;62539;51.190;6.808;2023-03-21T12:08:40;101087.59;;;23.35;44.76
62617;BME280;62539;51.190;6.808;2023-03-21T12:14:45;101100.75;;;23.37;44.75
62617;BME280;62539;51.190;6.808;2023-03-21T12:17:27;101099.19;;;23.32;44.82
62617;BME280;62539;51.190;6.808;2023-03-21T12:20:22;101098.66;;;23.26;44.92
62617;BME280;62539;51.190;6.808;2023-03-21T12:25:32;101094.06;;;23.10;45.09
62617;BME280;62539;51.190;6.808;2023-03-21T12:30:44;101091.94;;;22.99;45.34
62617;BME280;62539;51.190;6.808;2023-03-21T12:36:27;101093.78;;;22.97;45.47
62617;BME280;62539;51.190;6.808;2023-03-21T12:39:35;101086.88;;;22.95;45.23
62617;BME280;62539;51.190;6.808;2023-03-21T12:45:12;101075.44;;;22.94;45.31
62617;BME280;62539;51.190;6.808;2023-03-21T12:47:48;101062.91;;;22.98;45.69
62617;BME280;62539;51.190;6.808;2023-03-21T12:56:22;101044.19;;;23.20;45.12
62617;BME280;62539;51.190;6.808;2023-03-21T12:58:58;101058.69;;;23.30;45.03
62617;BME280;62539;51.190;6.808;2023-03-21T13:01:31;101046.03;;;23.37;44.40
62617;BME280;62539;51.190;6.808;2023-03-21T13:07:13;101039.47;;;23.44;44.59
62617;BME280;62539;51.190;6.808;2023-03-21T13:09:44;101026.31;;;23.43;44.63
62617;BME280;62539;51.190;6.808;2023-03-21T13:15:13;101022.97;;;23.39;44.57
62617;BME280;62539;51.190;6.808;2023-03-21T13:18:28;101015.19;;;23.36;44.71
62617;BME280;62539;51.190;6.808;2023-03-21T13:24:03;101004.91;;;23.30;44.92
62617;BME280;62539;51.190;6.808;2023-03-21T13:26:44;100995.25;;;23.29;45.09
62617;BME280;62539;51.190;6.808;2023-03-21T13:29:27;100999.47;;;23.33;45.46
62617;BME280;62539;51.190;6.808;2023-03-21T13:32:06;100998.84;;;23.45;45.14
62617;BME280;62539;51.190;6.808;2023-03-21T13:34:37;101010.78;;;23.70;44.84
62617;BME280;62539;51.190;6.808;2023-03-21T13:37:03;100998.09;;;23.93;44.49
62617;BME280;62539;51.190;6.808;2023-03-21T13:39:28;100999.00;;;24.10;43.91
62617;BME280;62539;51.190;6.808;2023-03-21T13:42:02;100990.19;;;24.25;43.73
62617;BME280;62539;51.190;6.808;2023-03-21T13:47:05;100972.16;;;24.48;43.13
62617;BME280;62539;51.190;6.808;2023-03-21T13:50:27;100966.41;;;24.56;43.07
62617;BME280;62539;51.190;6.808;2023-03-21T13:55:27;100965.38;;;24.58;42.76
62617;BME280;62539;51.190;6.808;2023-03-21T13:57:55;100964.59;;;24.56;42.86
62617;BME280;62539;51.190;6.808;2023-03-21T14:00:28;100969.25;;;24.52;42.78
62617;BME280;62539;51.190;6.808;2023-03-21T14:02:58;100968.56;;;24.49;42.64
62617;BME280;62539;51.190;6.808;2023-03-21T14:05:30;100959.84;;;24.47;42.53
62617;BME280;62539;51.190;6.808;2023-03-21T14:08:00;100956.22;;;24.48;42.87
62617;BME280;62539;51.190;6.808;2023-03-21T14:10:39;100955.13;;;24.52;42.82
62617;BME280;62539;51.190;6.808;2023-03-21T14:13:14;100955.53;;;24.60;42.66
62617;BME280;62539;51.190;6.808;2023-03-21T14:15:46;100948.94;;;24.67;43.29
62617;BME280;62539;51.190;6.808;2023-03-21T14:18:18;100953.91;;;24.74;43.14
62617;BME280;62539;51.190;6.808;2023-03-21T14:20:56;100956.38;;;24.77;43.04